createdAt,value
2022-10-31T00:00:58.459Z,958.9295044
2022-10-31T00:01:59.134Z,958.9451294
2022-10-31T00:02:59.938Z,958.9517212
2022-10-31T00:04:00.274Z,958.9376831
2022-10-31T00:05:00.782Z,958.9295044
2022-10-31T00:06:01.606Z,958.9823608
2022-10-31T00:07:03.339Z,958.987793
2022-10-31T00:08:04.018Z,958.9639893
2022-10-31T00:09:04.490Z,958.9932861
2022-10-31T00:10:04.969Z,959.0388794
2022-10-31T00:11:05.835Z,958.970459
2022-10-31T00:12:06.678Z,958.9749756
2022-10-31T00:13:07.548Z,958.9609375
2022-10-31T00:14:08.760Z,958.9732666
2022-10-31T00:15:09.237Z,958.946167
2022-10-31T00:16:09.847Z,958.9793701
2022-10-31T00:17:11.308Z,958.9754028
2022-10-31T00:18:11.964Z,958.9646606
2022-10-31T00:19:12.465Z,958.9737549
2022-10-31T00:20:12.961Z,959.0043945
2022-10-31T00:21:13.606Z,958.9923706
2022-10-31T00:22:14.330Z,958.9815674
2022-10-31T00:23:15.061Z,958.9821777
2022-10-31T00:24:15.795Z,958.9684448
2022-10-31T00:25:16.275Z,958.9534302
2022-10-31T00:26:16.947Z,958.9418945
2022-10-31T00:27:18.371Z,958.9522705
2022-10-31T00:29:19.751Z,958.9486084
2022-10-31T00:30:20.196Z,958.9159546
2022-10-31T00:31:20.823Z,958.9117432
2022-10-31T00:32:21.646Z,958.8986816
2022-10-31T00:33:22.855Z,958.8650513
2022-10-31T00:34:53.801Z,958.862793
2022-10-31T00:35:54.333Z,958.8943481
2022-10-31T00:36:55.210Z,958.9204102
2022-10-31T00:37:56.773Z,958.9014282
2022-10-31T00:38:57.521Z,958.9715576
2022-10-31T00:39:58.771Z,958.9562378
2022-10-31T00:40:59.278Z,958.9595337
2022-10-31T00:41:59.819Z,958.9946899
2022-10-31T00:43:00.948Z,958.9328003
2022-10-31T00:44:02.180Z,958.9937744
2022-10-31T00:45:02.885Z,958.9436035
2022-10-31T00:46:03.319Z,958.9420166
2022-10-31T00:47:03.898Z,958.9611816
2022-10-31T00:48:05.238Z,958.9198608
2022-10-31T00:49:05.980Z,958.8878174
2022-10-31T00:50:06.870Z,958.8682861
2022-10-31T00:51:07.464Z,958.9112549
2022-10-31T00:52:07.862Z,958.8623657
2022-10-31T00:53:08.479Z,958.8580322
2022-10-31T00:54:09.057Z,958.8546753
2022-10-31T00:55:09.698Z,958.8618774
2022-10-31T00:56:10.141Z,958.847168
2022-10-31T00:57:10.662Z,958.8634644
2022-10-31T00:58:12.216Z,958.8591309
2022-10-31T00:59:12.952Z,958.8521729
2022-10-31T01:00:13.633Z,958.8657837
2022-10-31T01:01:14.337Z,958.8527832
2022-10-31T01:02:14.886Z,958.8554077
2022-10-31T01:03:15.421Z,958.873291
2022-10-31T01:04:16.143Z,958.8549805
2022-10-31T01:05:16.972Z,958.8543701
2022-10-31T01:06:17.689Z,958.7924805
2022-10-31T01:07:18.762Z,958.8132324
2022-10-31T01:08:20.243Z,958.8066406
2022-10-31T01:09:21.230Z,958.8218994
2022-10-31T01:10:22.409Z,958.7943115
2022-10-31T01:11:53.254Z,958.7796021
2022-10-31T01:12:53.742Z,958.7801514
2022-10-31T01:13:54.461Z,958.7645264
2022-10-31T01:14:56.101Z,958.7910767
2022-10-31T01:15:57.891Z,958.7878418
2022-10-31T01:16:58.568Z,958.7581177
2022-10-31T01:17:59.289Z,958.7923584
2022-10-31T01:18:59.576Z,958.7498169
2022-10-31T01:20:00.346Z,958.7885742
2022-10-31T01:21:01.123Z,958.7487793
2022-10-31T01:22:01.647Z,958.7542114
2022-10-31T01:23:02.194Z,958.7271729
2022-10-31T01:24:02.711Z,958.758728
2022-10-31T01:25:03.438Z,958.7072144
2022-10-31T01:26:04.217Z,958.7191162
2022-10-31T01:27:04.879Z,958.7532959
2022-10-31T01:28:06.003Z,958.6984863
2022-10-31T01:29:06.545Z,958.7235107
2022-10-31T01:30:07.249Z,958.6849976
2022-10-31T01:31:08.007Z,958.6976318
2022-10-31T01:32:08.729Z,958.7355957
2022-10-31T01:33:09.331Z,958.6606445
2022-10-31T01:34:09.828Z,958.666748
2022-10-31T01:35:11.232Z,958.6688843
2022-10-31T01:36:11.882Z,958.6688232
2022-10-31T01:37:12.604Z,958.6677856
2022-10-31T01:38:14.130Z,958.6408081
2022-10-31T01:39:14.603Z,958.6575928
2022-10-31T01:40:15.072Z,958.6592407
2022-10-31T01:41:15.916Z,958.633667
2022-10-31T01:42:16.608Z,958.6311035
2022-10-31T01:43:17.302Z,958.617981
2022-10-31T01:44:17.761Z,958.6049805
2022-10-31T01:45:18.230Z,958.6190796
2022-10-31T01:46:18.782Z,958.6265869
2022-10-31T01:47:19.244Z,958.6118774
2022-10-31T01:48:20.788Z,958.5881348
2022-10-31T01:49:21.729Z,958.5761108
2022-10-31T01:50:52.461Z,958.5598145
2022-10-31T01:51:53.299Z,958.565918
2022-10-31T01:52:53.881Z,958.5773315
2022-10-31T01:53:54.443Z,958.553894
2022-10-31T01:54:55.068Z,958.5078125
2022-10-31T01:55:55.591Z,958.5273438
2022-10-31T01:56:56.323Z,958.522522
2022-10-31T01:57:58.048Z,958.5273438
2022-10-31T01:58:58.315Z,958.519165
2022-10-31T01:59:58.865Z,958.4910889
2022-10-31T02:01:01.818Z,958.4871826
2022-10-31T02:02:00.221Z,958.4406128
2022-10-31T02:03:01.383Z,958.4210205
2022-10-31T02:04:01.487Z,958.4168091
2022-10-31T02:05:02.044Z,958.4346924
2022-10-31T02:06:02.584Z,958.4004517
2022-10-31T02:07:03.097Z,958.366333
2022-10-31T02:08:04.366Z,958.4053955
2022-10-31T02:09:05.065Z,958.4199829
2022-10-31T02:10:05.573Z,958.3636475
2022-10-31T02:11:06.026Z,958.3685913
2022-10-31T02:12:06.571Z,958.3587646
2022-10-31T02:13:07.074Z,958.3262329
2022-10-31T02:14:07.591Z,958.312561
2022-10-31T02:15:09.037Z,958.3347778
2022-10-31T02:16:09.555Z,958.2891235
2022-10-31T02:17:10.048Z,958.2817383
2022-10-31T02:18:11.451Z,958.305481
2022-10-31T02:19:12.243Z,958.2810669
2022-10-31T02:20:12.981Z,958.2963257
2022-10-31T02:21:13.470Z,958.2745361
2022-10-31T02:22:14.022Z,958.2751465
2022-10-31T02:23:14.690Z,958.3184204
2022-10-31T02:24:15.612Z,958.2822876
2022-10-31T02:25:16.317Z,958.2702637
2022-10-31T02:26:16.976Z,958.2745361
2022-10-31T02:27:17.556Z,958.2614136
2022-10-31T02:29:19.534Z,958.3034668
2022-10-31T02:30:51.687Z,958.3049316
2022-10-31T02:31:52.246Z,958.3277588
2022-10-31T02:32:52.842Z,958.3208618
2022-10-31T02:33:53.536Z,958.3490601
2022-10-31T02:34:54.323Z,958.3431396
2022-10-31T02:35:55.247Z,958.3408813
2022-10-31T02:36:55.873Z,958.3179932
2022-10-31T02:37:56.432Z,958.3566895
2022-10-31T02:38:57.519Z,958.3128052
2022-10-31T02:39:58.027Z,958.3121948
2022-10-31T02:40:58.567Z,958.3104858
2022-10-31T02:41:59.129Z,958.3078003
2022-10-31T02:43:00.127Z,958.2746582
2022-10-31T02:44:00.745Z,958.2753296
2022-10-31T02:45:02.250Z,958.2459106
2022-10-31T02:46:02.833Z,958.2160034
2022-10-31T02:47:03.449Z,958.1928101
2022-10-31T02:48:04.774Z,958.1928101
2022-10-31T02:49:05.346Z,958.262207
2022-10-31T02:50:06.766Z,958.2237549
2022-10-31T02:51:07.441Z,958.2036133
2022-10-31T02:52:08.552Z,958.2095337
2022-10-31T02:53:09.092Z,958.2426758
2022-10-31T02:54:09.655Z,958.211792
2022-10-31T02:55:10.397Z,958.1906128
2022-10-31T02:56:11.009Z,958.18573
2022-10-31T02:57:11.574Z,958.2231445
2022-10-31T02:58:13.302Z,958.1867065
2022-10-31T02:59:13.899Z,958.2270508
2022-10-31T03:00:15.244Z,958.1699829
2022-10-31T03:01:16.126Z,958.1721802
2022-10-31T03:02:16.768Z,958.1721802
2022-10-31T03:03:17.458Z,958.1712646
2022-10-31T03:04:18.179Z,958.1884155
2022-10-31T03:05:19.056Z,958.2184448
2022-10-31T03:06:19.831Z,958.2134399
2022-10-31T03:07:21.264Z,958.2515869
2022-10-31T03:08:53.223Z,958.2199707
2022-10-31T03:09:54.033Z,958.2318726
2022-10-31T03:10:54.704Z,958.1842041
2022-10-31T03:11:55.387Z,958.225647
2022-10-31T03:12:55.972Z,958.1506348
2022-10-31T03:13:56.702Z,958.2033081
2022-10-31T03:14:57.956Z,958.1647949
2022-10-31T03:15:58.707Z,958.1062012
2022-10-31T03:16:59.535Z,958.1344604
2022-10-31T03:18:00.560Z,958.1116943
2022-10-31T03:19:01.583Z,958.0687256
2022-10-31T03:20:02.347Z,958.085083
2022-10-31T03:21:03.195Z,958.0567017
2022-10-31T03:22:03.930Z,958.0628052
2022-10-31T03:23:04.477Z,958.0384521
2022-10-31T03:24:05.086Z,958.0480957
2022-10-31T03:25:05.813Z,958.0031128
2022-10-31T03:26:06.534Z,957.980957
2022-10-31T03:27:07.187Z,957.9640503
2022-10-31T03:28:07.812Z,957.9542236
2022-10-31T03:29:09.086Z,957.9509277
2022-10-31T03:30:09.545Z,957.9533081
2022-10-31T03:31:10.240Z,957.9516602
2022-10-31T03:32:10.903Z,957.9896851
2022-10-31T03:33:11.542Z,957.9674072
2022-10-31T03:34:12.051Z,957.9813843
2022-10-31T03:35:12.753Z,957.9918823
2022-10-31T03:36:13.508Z,957.9511108
2022-10-31T03:37:14.466Z,957.9576416
2022-10-31T03:38:15.173Z,957.9414063
2022-10-31T03:39:16.546Z,957.942627
2022-10-31T03:40:17.098Z,957.9181519
2022-10-31T03:41:17.804Z,957.8796997
2022-10-31T03:42:18.569Z,957.949707
2022-10-31T03:43:19.290Z,957.921936
2022-10-31T03:44:20.108Z,957.9528198
2022-10-31T03:45:52.201Z,957.9664307
2022-10-31T03:46:52.856Z,957.9696655
2022-10-31T03:47:53.552Z,957.9816895
2022-10-31T03:48:54.770Z,957.9865723
2022-10-31T03:49:55.423Z,958.0109863
2022-10-31T03:50:55.972Z,957.984375
2022-10-31T03:51:56.673Z,957.968689
2022-10-31T03:52:57.528Z,957.9707031
2022-10-31T03:53:58.152Z,957.9561157
2022-10-31T03:54:58.703Z,957.9561157
2022-10-31T03:55:59.224Z,957.9073486
2022-10-31T03:56:59.763Z,957.9403076
2022-10-31T03:58:00.866Z,957.8931274
2022-10-31T03:59:02.147Z,957.9403076
2022-10-31T04:00:02.732Z,957.9168701
2022-10-31T04:01:03.645Z,957.9110718
2022-10-31T04:02:03.849Z,957.9152832
2022-10-31T04:03:05.385Z,957.9224854
2022-10-31T04:04:06.184Z,957.9003296
2022-10-31T04:05:06.736Z,957.8970337
2022-10-31T04:06:07.210Z,957.9012451
2022-10-31T04:07:07.831Z,957.9246216
2022-10-31T04:08:08.543Z,957.8822632
2022-10-31T04:09:10.282Z,957.8911133
2022-10-31T04:10:10.940Z,957.9017944
2022-10-31T04:11:11.478Z,957.8933105
2022-10-31T04:12:12.034Z,957.9355469
2022-10-31T04:13:13.132Z,957.8986816
2022-10-31T04:14:13.889Z,957.9321899
2022-10-31T04:15:14.686Z,957.9246826
2022-10-31T04:16:17.285Z,957.9155273
2022-10-31T04:17:17.078Z,957.8970337
2022-10-31T04:18:17.852Z,957.9491577
2022-10-31T04:19:19.228Z,957.9207764
2022-10-31T04:20:20.471Z,957.9170532
2022-10-31T04:21:51.057Z,957.9506226
2022-10-31T04:22:51.531Z,957.9603271
2022-10-31T04:23:52.387Z,957.9349976
2022-10-31T04:24:53.181Z,957.9626465
2022-10-31T04:25:53.838Z,957.9277954
2022-10-31T04:26:54.315Z,957.9473267
2022-10-31T04:27:54.893Z,957.9349976
2022-10-31T04:28:56.827Z,957.9370117
2022-10-31T04:29:57.600Z,957.9262695
2022-10-31T04:30:58.320Z,957.9484253
2022-10-31T04:31:58.881Z,957.9033813
2022-10-31T04:32:59.655Z,957.9268799
2022-10-31T04:34:00.080Z,957.9073486
2022-10-31T04:35:00.878Z,957.8779907
2022-10-31T04:36:01.661Z,957.8710327
2022-10-31T04:37:02.174Z,957.9034424
2022-10-31T04:38:02.725Z,957.8884277
2022-10-31T04:39:03.922Z,957.852478
2022-10-31T04:40:04.842Z,957.8449707
2022-10-31T04:41:05.631Z,957.8895264
2022-10-31T04:42:06.080Z,957.8683472
2022-10-31T04:43:06.627Z,957.805481
2022-10-31T04:44:07.102Z,957.8167725
2022-10-31T04:45:07.941Z,957.8278198
2022-10-31T04:46:08.634Z,957.805542
2022-10-31T04:47:09.176Z,957.8607788
2022-10-31T04:48:09.691Z,957.8343506
2022-10-31T04:49:10.792Z,957.8167114
2022-10-31T04:50:11.913Z,957.8035889
2022-10-31T04:51:12.736Z,957.8464355
2022-10-31T04:52:13.458Z,957.8216553
2022-10-31T04:53:14.174Z,957.8518677
2022-10-31T04:54:14.744Z,957.8328857
2022-10-31T04:55:15.515Z,957.8475952
2022-10-31T04:56:16.323Z,957.8742065
2022-10-31T04:57:17.164Z,957.8556519
2022-10-31T04:58:18.605Z,957.8693848
2022-10-31T04:59:19.759Z,957.8530273
2022-10-31T05:00:51.004Z,957.8167114
2022-10-31T05:01:52.073Z,957.803772
2022-10-31T05:02:52.699Z,957.8118896
2022-10-31T05:03:53.316Z,957.7662354
2022-10-31T05:04:53.876Z,957.8242188
2022-10-31T05:05:54.509Z,957.7857666
2022-10-31T05:06:55.466Z,957.8237305
2022-10-31T05:07:56.299Z,957.7636108
2022-10-31T05:08:57.751Z,957.7739258
2022-10-31T05:09:58.217Z,957.7973633
2022-10-31T05:11:03.304Z,957.7965698
2022-10-31T05:12:00.801Z,957.8222046
2022-10-31T05:13:02.099Z,957.7935181
2022-10-31T05:14:02.336Z,957.7608032
2022-10-31T05:15:02.931Z,957.7842407
2022-10-31T05:16:03.394Z,957.7994385
2022-10-31T05:17:04.335Z,957.8064575
2022-10-31T05:18:05.857Z,957.7435913
2022-10-31T05:19:06.692Z,957.7842407
2022-10-31T05:20:08.369Z,957.7806396
2022-10-31T05:21:09.016Z,957.7382202
2022-10-31T05:22:09.876Z,957.7893066
2022-10-31T05:23:10.686Z,957.7966919
2022-10-31T05:24:11.485Z,957.762207
2022-10-31T05:25:12.120Z,957.7524414
2022-10-31T05:26:12.681Z,957.7296143
2022-10-31T05:27:13.548Z,957.6774902
2022-10-31T05:28:14.309Z,957.68396
2022-10-31T05:29:15.853Z,957.6917114
2022-10-31T05:30:16.406Z,957.6520386
2022-10-31T05:31:17.044Z,957.6776733
2022-10-31T05:32:17.733Z,957.6353149
2022-10-31T05:33:18.535Z,957.6662598
2022-10-31T05:34:50.083Z,957.6737671
2022-10-31T05:35:50.909Z,957.6451416
2022-10-31T05:36:51.424Z,957.6428833
2022-10-31T05:37:52.222Z,957.6141968
2022-10-31T05:38:52.838Z,957.6152344
2022-10-31T05:39:54.296Z,957.6624146
2022-10-31T05:40:54.859Z,957.6087646
2022-10-31T05:41:55.432Z,957.625
2022-10-31T05:42:56.946Z,957.6559448
2022-10-31T05:43:57.730Z,957.6900024
2022-10-31T05:44:58.546Z,957.6401367
2022-10-31T05:45:59.320Z,957.6776733
2022-10-31T05:46:59.818Z,957.6695557
2022-10-31T05:48:00.756Z,957.6548462
2022-10-31T05:49:02.857Z,957.6467285
2022-10-31T05:50:02.727Z,957.6376343
2022-10-31T05:51:03.475Z,957.6159668
2022-10-31T05:52:03.976Z,957.5745239
2022-10-31T05:53:04.636Z,957.5647583
2022-10-31T05:54:05.291Z,957.5378418
2022-10-31T05:55:06.021Z,957.5501709
2022-10-31T05:56:06.841Z,957.562561
2022-10-31T05:57:07.534Z,957.5892944
2022-10-31T05:58:09.062Z,957.572998
2022-10-31T05:59:09.814Z,957.5935669
2022-10-31T06:00:11.370Z,957.6206055
2022-10-31T06:01:12.160Z,957.5930176
2022-10-31T06:02:12.636Z,957.6129761
2022-10-31T06:03:13.190Z,957.6276855
2022-10-31T06:04:13.760Z,957.6380615
2022-10-31T06:05:14.615Z,957.602356
2022-10-31T06:06:15.372Z,957.6237793
2022-10-31T06:07:16.003Z,957.600647
2022-10-31T06:08:16.511Z,957.5723267
2022-10-31T06:09:17.781Z,957.5822144
2022-10-31T06:10:19.950Z,957.5648193
2022-10-31T06:11:51.356Z,957.6022949
2022-10-31T06:12:51.877Z,957.5822144
2022-10-31T06:13:52.478Z,957.5974121
2022-10-31T06:14:52.930Z,957.6081543
2022-10-31T06:15:53.732Z,957.5843506
2022-10-31T06:16:54.457Z,957.5723267
2022-10-31T06:17:55.042Z,957.5690918
2022-10-31T06:18:55.681Z,957.5625
2022-10-31T06:19:57.056Z,957.5452881
2022-10-31T06:20:57.998Z,957.614624
2022-10-31T06:21:58.856Z,957.5637207
2022-10-31T06:22:59.924Z,957.6151733
2022-10-31T06:24:00.094Z,957.6477051
2022-10-31T06:25:00.617Z,957.6434937
2022-10-31T06:26:01.337Z,957.6809082
2022-10-31T06:27:02.117Z,957.6568604
2022-10-31T06:28:02.932Z,957.6098633
2022-10-31T06:29:04.272Z,957.6564331
2022-10-31T06:30:04.561Z,957.6774902
2022-10-31T06:31:05.304Z,957.6743164
2022-10-31T06:32:06.261Z,957.6118774
2022-10-31T06:33:07.005Z,957.6353149
2022-10-31T06:34:07.737Z,957.5761108
2022-10-31T06:35:08.397Z,957.5881348
2022-10-31T06:36:09.180Z,957.6129761
2022-10-31T06:37:09.974Z,957.5679932
2022-10-31T06:38:10.809Z,957.5853271
2022-10-31T06:39:11.532Z,957.5413818
2022-10-31T06:40:12.569Z,957.5853271
2022-10-31T06:41:13.120Z,957.5853271
2022-10-31T06:42:14.908Z,957.5925293
2022-10-31T06:43:15.676Z,957.5800171
2022-10-31T06:44:16.464Z,957.6037598
2022-10-31T06:45:16.979Z,957.598877
2022-10-31T06:46:17.600Z,957.59729
2022-10-31T06:47:18.911Z,957.5939941
2022-10-31T06:48:50.107Z,957.5929565
2022-10-31T06:49:51.843Z,957.6151733
2022-10-31T06:50:57.094Z,957.614502
2022-10-31T06:51:52.960Z,957.6748657
2022-10-31T06:52:53.948Z,957.6920166
2022-10-31T06:53:54.544Z,957.710022
2022-10-31T06:54:55.343Z,957.751709
2022-10-31T06:55:55.954Z,957.7435913
2022-10-31T06:56:56.503Z,957.7642212
2022-10-31T06:58:00.269Z,957.7593994
2022-10-31T06:58:58.105Z,957.7196655
2022-10-31T06:59:59.924Z,957.7512207
2022-10-31T07:01:00.725Z,957.7545166
2022-10-31T07:02:01.242Z,957.7393799
2022-10-31T07:03:01.790Z,957.7327881
2022-10-31T07:04:02.478Z,957.7327881
2022-10-31T07:05:03.243Z,957.7192383
2022-10-31T07:06:03.767Z,957.7435913
2022-10-31T07:07:04.362Z,957.7511597
2022-10-31T07:08:05.079Z,957.7561035
2022-10-31T07:09:05.869Z,957.7890625
2022-10-31T07:10:07.436Z,957.8031006
2022-10-31T07:11:08.047Z,957.7901611
2022-10-31T07:12:08.678Z,957.8643799
2022-10-31T07:13:09.408Z,957.8156128
2022-10-31T07:14:10.205Z,957.7873535
2022-10-31T07:15:11.785Z,957.8638916
2022-10-31T07:16:12.266Z,957.8535767
2022-10-31T07:17:12.817Z,957.887207
2022-10-31T07:18:13.464Z,957.8758545
2022-10-31T07:19:14.368Z,957.9429932
2022-10-31T07:20:15.957Z,957.9137573
2022-10-31T07:21:16.705Z,957.9591675
2022-10-31T07:22:17.355Z,957.9464722
2022-10-31T07:23:18.309Z,957.9368896
2022-10-31T07:24:49.663Z,958.0201416
2022-10-31T07:25:50.685Z,958.012207
2022-10-31T07:26:51.229Z,958.0630493
2022-10-31T07:27:52.324Z,958.0343628
2022-10-31T07:28:52.958Z,958.0770874
2022-10-31T07:29:54.372Z,958.0521851
2022-10-31T07:30:55.129Z,958.069519
2022-10-31T07:31:55.927Z,958.0726318
2022-10-31T07:32:56.412Z,958.1210327
2022-10-31T07:33:57.054Z,958.1138916
2022-10-31T07:34:57.962Z,958.12146
2022-10-31T07:35:58.848Z,958.0948486
2022-10-31T07:36:59.521Z,958.1161499
2022-10-31T07:38:00.403Z,958.1013184
2022-10-31T07:39:00.570Z,958.1218872
2022-10-31T07:40:01.326Z,958.1707764
2022-10-31T07:41:02.914Z,958.1578369
2022-10-31T07:42:03.633Z,958.1383057
2022-10-31T07:43:04.221Z,958.1464844
2022-10-31T07:44:04.831Z,958.1213989
2022-10-31T07:45:05.637Z,958.0736084
2022-10-31T07:46:06.440Z,958.0482788
2022-10-31T07:47:07.756Z,958.0612793
2022-10-31T07:48:08.544Z,958.0915527
2022-10-31T07:49:09.206Z,958.1066284
2022-10-31T07:50:10.818Z,958.06604
2022-10-31T07:51:11.611Z,958.0979614
2022-10-31T07:52:12.293Z,958.1054688
2022-10-31T07:53:12.945Z,958.0496826
2022-10-31T07:54:13.512Z,958.0402832
2022-10-31T07:55:14.134Z,958.074585
2022-10-31T07:56:15.141Z,958.0923462
2022-10-31T07:57:16.101Z,958.0820313
2022-10-31T07:58:16.824Z,958.0928955
2022-10-31T07:59:17.980Z,958.0993652
2022-10-31T08:00:49.773Z,958.0689087
2022-10-31T08:01:50.165Z,958.0946655
2022-10-31T08:02:52.548Z,958.0805664
2022-10-31T08:03:53.347Z,958.0925293
2022-10-31T08:04:57.190Z,958.0864258
2022-10-31T08:05:55.214Z,958.0664063
2022-10-31T08:06:55.841Z,958.0531006
2022-10-31T08:07:56.357Z,958.050293
2022-10-31T08:08:56.905Z,958.0488281
2022-10-31T08:09:57.398Z,958.059082
2022-10-31T08:10:58.560Z,958.0665894
2022-10-31T08:11:59.193Z,958.0914917
2022-10-31T08:12:59.680Z,958.0942383
2022-10-31T08:14:00.445Z,958.1256104
2022-10-31T08:15:01.924Z,958.0728149
2022-10-31T08:16:02.667Z,958.105957
2022-10-31T08:17:03.452Z,958.0685425
2022-10-31T08:18:04.274Z,958.0601807
2022-10-31T08:19:05.153Z,958.0664673
2022-10-31T08:20:05.852Z,958.0600586
2022-10-31T08:21:07.162Z,958.0853271
2022-10-31T08:22:07.734Z,958.0593872
2022-10-31T08:23:08.322Z,958.0457764
2022-10-31T08:24:08.856Z,958.050415
2022-10-31T08:25:09.394Z,958.0786133
2022-10-31T08:26:09.947Z,958.0632935
2022-10-31T08:27:10.536Z,958.0751343
2022-10-31T08:28:11.135Z,958.0820923
2022-10-31T08:29:11.674Z,958.069519
2022-10-31T08:30:12.815Z,958.0809937
2022-10-31T08:31:14.329Z,958.093811
2022-10-31T08:32:14.998Z,958.0560913
2022-10-31T08:33:15.527Z,958.0083008
2022-10-31T08:34:16.045Z,958.0054932
2022-10-31T08:35:16.630Z,957.9765625
2022-10-31T08:36:17.737Z,957.9512329
2022-10-31T08:37:48.698Z,957.9506836
2022-10-31T08:38:49.217Z,957.9249878
2022-10-31T08:39:49.762Z,957.8928223
2022-10-31T08:40:51.138Z,957.8922729
2022-10-31T08:41:52.308Z,957.8874512
2022-10-31T08:42:52.866Z,957.8878174
2022-10-31T08:43:53.452Z,957.8953247
2022-10-31T08:44:54.016Z,957.850769
2022-10-31T08:45:54.593Z,957.8534546
2022-10-31T08:46:55.197Z,957.8325806
2022-10-31T08:47:55.734Z,957.8537598
2022-10-31T08:48:56.296Z,957.828125
2022-10-31T08:49:56.789Z,957.8068848
2022-10-31T08:50:58.116Z,957.8656006
2022-10-31T08:51:58.637Z,957.8623657
2022-10-31T08:53:05.302Z,957.8692017
2022-10-31T08:53:59.815Z,957.8859253
2022-10-31T08:55:00.449Z,957.8517456
2022-10-31T08:56:01.000Z,957.8789063
2022-10-31T08:57:01.636Z,957.8495483
2022-10-31T08:58:02.468Z,957.8956299
2022-10-31T08:59:02.768Z,957.8453979
2022-10-31T09:00:03.279Z,957.871582
2022-10-31T09:01:04.756Z,957.772522
2022-10-31T09:02:05.287Z,957.7816162
2022-10-31T09:03:05.903Z,957.7277832
2022-10-31T09:04:06.465Z,957.7288818
2022-10-31T09:05:07.025Z,957.7086792
2022-10-31T09:06:07.647Z,957.6999512
2022-10-31T09:07:20.543Z,957.678772
2022-10-31T09:08:14.784Z,957.6640625
2022-10-31T09:09:09.438Z,957.6676636
2022-10-31T09:10:09.974Z,957.6732178
2022-10-31T09:11:11.095Z,957.6781006
2022-10-31T09:12:11.686Z,957.6768799
2022-10-31T09:13:12.278Z,957.7404785
2022-10-31T09:14:12.766Z,957.7251587
2022-10-31T09:15:13.319Z,957.7684937
2022-10-31T09:16:13.886Z,957.77771
2022-10-31T09:17:15.339Z,957.7819824
2022-10-31T09:18:15.915Z,957.7842407
2022-10-31T09:19:16.399Z,957.6929932
2022-10-31T09:20:48.315Z,957.6668701
2022-10-31T09:21:48.874Z,957.6564331
2022-10-31T09:22:49.433Z,957.6541138
2022-10-31T09:23:50.615Z,957.6623535
2022-10-31T09:24:51.214Z,957.6228027
2022-10-31T09:25:52.512Z,957.6173706
2022-10-31T09:26:53.020Z,957.5967407
2022-10-31T09:27:54.306Z,957.5653687
2022-10-31T09:28:54.785Z,957.5147705
2022-10-31T09:29:55.264Z,957.4681396
2022-10-31T09:30:56.289Z,957.4328003
2022-10-31T09:31:56.811Z,957.3852539
2022-10-31T09:32:57.336Z,957.371582
2022-10-31T09:33:57.891Z,957.3471069
2022-10-31T09:34:58.374Z,957.345459
2022-10-31T09:35:58.841Z,957.3031006
2022-10-31T09:36:59.339Z,957.3171387
2022-10-31T09:38:00.420Z,957.3057251
2022-10-31T09:39:00.394Z,957.388916
2022-10-31T09:40:00.893Z,957.3654785
2022-10-31T09:41:02.303Z,957.3751831
2022-10-31T09:42:02.822Z,957.394043
2022-10-31T09:43:03.365Z,957.3892822
2022-10-31T09:44:03.890Z,957.3936157
2022-10-31T09:45:04.327Z,957.3850708
2022-10-31T09:46:04.772Z,957.3577271
2022-10-31T09:47:05.289Z,957.338623
2022-10-31T09:48:05.711Z,957.2890625
2022-10-31T09:49:06.302Z,957.2871094
2022-10-31T09:50:06.744Z,957.3184204
2022-10-31T09:51:07.789Z,957.324707
2022-10-31T09:52:08.250Z,957.348877
2022-10-31T09:53:08.759Z,957.3903809
2022-10-31T09:54:09.357Z,957.4038086
2022-10-31T09:55:09.943Z,957.4371948
2022-10-31T09:56:11.182Z,957.4128418
2022-10-31T09:57:11.811Z,957.4271851
2022-10-31T09:58:12.299Z,957.4154663
2022-10-31T09:59:12.841Z,957.4275513
2022-10-31T10:00:13.337Z,957.4151611
2022-10-31T10:01:14.742Z,957.4390869
2022-10-31T10:02:16.523Z,957.4318848
2022-10-31T10:03:47.164Z,957.4671631
2022-10-31T10:04:47.656Z,957.4701538
2022-10-31T10:05:48.093Z,957.4315796
2022-10-31T10:06:48.561Z,957.402832
2022-10-31T10:07:49.058Z,957.3529053
2022-10-31T10:08:49.492Z,957.3192139
2022-10-31T10:09:49.969Z,957.2957153
2022-10-31T10:10:50.538Z,957.3185425
2022-10-31T10:11:51.631Z,957.3171997
2022-10-31T10:12:52.091Z,957.3413086
2022-10-31T10:13:52.569Z,957.3386841
2022-10-31T10:14:53.075Z,957.3065796
2022-10-31T10:15:54.531Z,957.3215332
2022-10-31T10:16:54.987Z,957.2764282
2022-10-31T10:17:55.603Z,957.2737427
2022-10-31T10:18:56.140Z,957.288147
2022-10-31T10:19:56.600Z,957.2854004
2022-10-31T10:20:57.036Z,957.2990723
2022-10-31T10:21:57.497Z,957.270752
2022-10-31T10:22:58.237Z,957.2854614
2022-10-31T10:23:58.627Z,957.2867432
2022-10-31T10:24:59.184Z,957.239502
2022-10-31T10:26:00.613Z,957.2539063
2022-10-31T10:27:01.207Z,957.2315674
2022-10-31T10:28:02.251Z,957.2277832
2022-10-31T10:29:02.354Z,957.1992798
2022-10-31T10:30:02.920Z,957.1815796
2022-10-31T10:31:03.449Z,957.1696777
2022-10-31T10:32:04.592Z,957.1821289
2022-10-31T10:33:05.105Z,957.0973511
2022-10-31T10:34:05.709Z,957.0583496
2022-10-31T10:35:06.263Z,957.0759277
2022-10-31T10:36:06.761Z,957.0752563
2022-10-31T10:37:07.332Z,957.0682983
2022-10-31T10:38:07.881Z,957.0119019
2022-10-31T10:39:08.407Z,957.038269
2022-10-31T10:40:08.955Z,957.0336914
2022-10-31T10:41:10.308Z,957.0100708
2022-10-31T10:42:10.835Z,956.9979858
2022-10-31T10:43:12.299Z,956.9890747
2022-10-31T10:44:12.808Z,957.0063477
2022-10-31T10:45:13.344Z,956.984375
2022-10-31T10:46:13.814Z,956.9804077
2022-10-31T10:47:14.358Z,956.975769
2022-10-31T10:48:14.862Z,956.9504395
2022-10-31T10:49:15.352Z,956.9915771
2022-10-31T10:50:46.366Z,956.944397
2022-10-31T10:51:57.732Z,956.9054565
2022-10-31T10:52:50.914Z,956.961853
2022-10-31T10:53:48.608Z,956.9742432
2022-10-31T10:54:49.181Z,956.9735718
2022-10-31T10:55:49.719Z,956.9771118
2022-10-31T10:56:50.483Z,956.9511108
2022-10-31T10:57:51.048Z,956.9331055
2022-10-31T10:58:51.543Z,956.960144
2022-10-31T10:59:52.057Z,956.9506226
2022-10-31T11:00:52.709Z,956.9734497
2022-10-31T11:01:53.586Z,956.9612427
2022-10-31T11:02:54.078Z,956.9821777
2022-10-31T11:03:54.555Z,956.9428101
2022-10-31T11:04:55.091Z,956.9502563
2022-10-31T11:05:55.702Z,956.9168701
2022-10-31T11:06:56.180Z,956.8931885
2022-10-31T11:07:56.630Z,956.8287354
2022-10-31T11:08:57.149Z,956.7805176